sensor_id;sensor_type;location;lat;lon;timestamp;P1;durP1;ratioP1;P2;durP2;ratioP2
5273;SDS011;56254;50.956;7.010;2022-12-07T00:01:24;49.97;;;21.13;;
5273;SDS011;56254;50.956;7.010;2022-12-07T00:03:55;46.17;;;21.70;;
5273;SDS011;56254;50.956;7.010;2022-12-07T00:06:25;45.93;;;20.83;;
5273;SDS011;56254;50.956;7.010;2022-12-07T00:08:51;43.97;;;22.60;;
5273;SDS011;56254;50.956;7.010;2022-12-07T00:11:18;43.30;;;22.00;;
5273;SDS011;56254;50.956;7.010;2022-12-07T00:13:45;38.93;;;19.03;;
5273;SDS011;56254;50.956;7.010;2022-12-07T00:16:16;50.33;;;21.70;;
5273;SDS011;56254;50.956;7.010;2022-12-07T00:18:43;39.07;;;20.57;;
5273;SDS011;56254;50.956;7.010;2022-12-07T00:21:11;41.60;;;22.20;;
5273;SDS011;56254;50.956;7.010;2022-12-07T00:23:40;42.37;;;20.70;;
5273;SDS011;56254;50.956;7.010;2022-12-07T00:26:07;31.27;;;18.23;;
5273;SDS011;56254;50.956;7.010;2022-12-07T00:28:35;45.23;;;20.40;;
5273;SDS011;56254;50.956;7.010;2022-12-07T00:31:05;45.97;;;20.83;;
5273;SDS011;56254;50.956;7.010;2022-12-07T00:33:35;59.87;;;21.47;;
5273;SDS011;56254;50.956;7.010;2022-12-07T00:36:03;46.83;;;21.43;;
5273;SDS011;56254;50.956;7.010;2022-12-07T00:38:32;42.83;;;20.30;;
5273;SDS011;56254;50.956;7.010;2022-12-07T00:41:18;51.60;;;20.73;;
5273;SDS011;56254;50.956;7.010;2022-12-07T00:43:46;39.90;;;20.97;;
5273;SDS011;56254;50.956;7.010;2022-12-07T00:46:12;36.47;;;18.07;;
5273;SDS011;56254;50.956;7.010;2022-12-07T00:48:39;39.20;;;19.90;;
5273;SDS011;56254;50.956;7.010;2022-12-07T00:51:06;41.90;;;21.03;;
5273;SDS011;56254;50.956;7.010;2022-12-07T00:53:35;40.00;;;18.53;;
5273;SDS011;56254;50.956;7.010;2022-12-07T00:56:05;40.43;;;20.07;;
5273;SDS011;56254;50.956;7.010;2022-12-07T00:58:36;60.30;;;21.17;;
5273;SDS011;56254;50.956;7.010;2022-12-07T01:01:03;42.20;;;20.67;;
5273;SDS011;56254;50.956;7.010;2022-12-07T01:03:30;38.30;;;18.40;;
5273;SDS011;56254;50.956;7.010;2022-12-07T01:05:57;36.33;;;21.23;;
5273;SDS011;56254;50.956;7.010;2022-12-07T01:08:23;42.00;;;18.80;;
5273;SDS011;56254;50.956;7.010;2022-12-07T01:10:58;39.17;;;19.80;;
5273;SDS011;56254;50.956;7.010;2022-12-07T01:13:25;47.67;;;21.53;;
5273;SDS011;56254;50.956;7.010;2022-12-07T01:15:50;40.17;;;20.40;;
5273;SDS011;56254;50.956;7.010;2022-12-07T01:18:19;35.73;;;18.10;;
5273;SDS011;56254;50.956;7.010;2022-12-07T01:20:44;38.23;;;19.03;;
5273;SDS011;56254;50.956;7.010;2022-12-07T01:23:10;51.43;;;20.00;;
5273;SDS011;56254;50.956;7.010;2022-12-07T01:25:36;42.83;;;19.37;;
5273;SDS011;56254;50.956;7.010;2022-12-07T01:28:01;34.67;;;19.80;;
5273;SDS011;56254;50.956;7.010;2022-12-07T01:30:27;37.70;;;19.10;;
5273;SDS011;56254;50.956;7.010;2022-12-07T01:32:53;42.40;;;21.30;;
5273;SDS011;56254;50.956;7.010;2022-12-07T01:35:20;44.10;;;21.13;;
5273;SDS011;56254;50.956;7.010;2022-12-07T01:37:45;44.27;;;21.93;;
5273;SDS011;56254;50.956;7.010;2022-12-07T01:40:11;46.03;;;21.87;;
5273;SDS011;56254;50.956;7.010;2022-12-07T01:42:37;48.43;;;20.97;;
5273;SDS011;56254;50.956;7.010;2022-12-07T01:48:02;44.93;;;22.20;;
5273;SDS011;56254;50.956;7.010;2022-12-07T01:50:29;52.07;;;23.70;;
5273;SDS011;56254;50.956;7.010;2022-12-07T01:52:59;54.20;;;25.20;;
5273;SDS011;56254;50.956;7.010;2022-12-07T01:55:28;48.30;;;24.10;;
5273;SDS011;56254;50.956;7.010;2022-12-07T01:57:54;45.73;;;22.37;;
5273;SDS011;56254;50.956;7.010;2022-12-07T02:00:22;48.43;;;23.63;;
5273;SDS011;56254;50.956;7.010;2022-12-07T02:03:04;48.87;;;24.10;;
5273;SDS011;56254;50.956;7.010;2022-12-07T02:05:30;47.07;;;23.23;;
5273;SDS011;56254;50.956;7.010;2022-12-07T02:07:57;52.93;;;24.80;;
5273;SDS011;56254;50.956;7.010;2022-12-07T02:10:28;47.93;;;25.30;;
5273;SDS011;56254;50.956;7.010;2022-12-07T02:13:06;51.93;;;26.30;;
5273;SDS011;56254;50.956;7.010;2022-12-07T02:15:48;48.37;;;25.50;;
5273;SDS011;56254;50.956;7.010;2022-12-07T02:35:18;54.67;;;23.93;;
5273;SDS011;56254;50.956;7.010;2022-12-07T02:37:53;52.43;;;24.67;;
5273;SDS011;56254;50.956;7.010;2022-12-07T02:40:29;52.13;;;23.80;;
5273;SDS011;56254;50.956;7.010;2022-12-07T02:43:08;45.07;;;25.10;;
5273;SDS011;56254;50.956;7.010;2022-12-07T02:45:39;41.23;;;23.97;;
5273;SDS011;56254;50.956;7.010;2022-12-07T02:48:07;49.93;;;23.97;;
5273;SDS011;56254;50.956;7.010;2022-12-07T02:50:35;51.63;;;24.13;;
5273;SDS011;56254;50.956;7.010;2022-12-07T02:53:00;54.73;;;23.93;;
5273;SDS011;56254;50.956;7.010;2022-12-07T02:55:28;45.13;;;23.00;;
5273;SDS011;56254;50.956;7.010;2022-12-07T03:00:44;47.93;;;22.60;;
5273;SDS011;56254;50.956;7.010;2022-12-07T03:03:28;47.07;;;23.50;;
5273;SDS011;56254;50.956;7.010;2022-12-07T03:06:06;57.53;;;23.20;;
5273;SDS011;56254;50.956;7.010;2022-12-07T03:08:43;46.27;;;23.10;;
5273;SDS011;56254;50.956;7.010;2022-12-07T03:11:25;43.60;;;22.70;;
5273;SDS011;56254;50.956;7.010;2022-12-07T03:14:07;51.67;;;24.80;;
5273;SDS011;56254;50.956;7.010;2022-12-07T03:16:49;49.50;;;26.17;;
5273;SDS011;56254;50.956;7.010;2022-12-07T03:19:22;59.23;;;23.53;;
5273;SDS011;56254;50.956;7.010;2022-12-07T03:21:59;46.23;;;23.00;;
5273;SDS011;56254;50.956;7.010;2022-12-07T03:24:29;43.73;;;22.60;;
5273;SDS011;56254;50.956;7.010;2022-12-07T03:27:05;51.40;;;23.60;;
5273;SDS011;56254;50.956;7.010;2022-12-07T03:29:36;55.80;;;23.83;;
5273;SDS011;56254;50.956;7.010;2022-12-07T03:32:08;58.73;;;25.60;;
5273;SDS011;56254;50.956;7.010;2022-12-07T03:35:11;51.60;;;25.40;;
5273;SDS011;56254;50.956;7.010;2022-12-07T03:40:23;53.93;;;24.60;;
5273;SDS011;56254;50.956;7.010;2022-12-07T03:42:58;49.37;;;25.30;;
5273;SDS011;56254;50.956;7.010;2022-12-07T03:45:30;45.40;;;23.80;;
5273;SDS011;56254;50.956;7.010;2022-12-07T03:54:02;52.80;;;25.33;;
5273;SDS011;56254;50.956;7.010;2022-12-07T03:56:38;54.67;;;26.00;;
5273;SDS011;56254;50.956;7.010;2022-12-07T03:59:05;51.07;;;24.83;;
5273;SDS011;56254;50.956;7.010;2022-12-07T04:01:32;53.03;;;26.33;;
5273;SDS011;56254;50.956;7.010;2022-12-07T04:03:58;44.50;;;24.30;;
5273;SDS011;56254;50.956;7.010;2022-12-07T04:06:24;53.10;;;24.17;;
5273;SDS011;56254;50.956;7.010;2022-12-07T04:08:50;49.83;;;24.13;;
5273;SDS011;56254;50.956;7.010;2022-12-07T04:11:15;47.00;;;25.43;;
5273;SDS011;56254;50.956;7.010;2022-12-07T04:13:41;53.23;;;24.60;;
5273;SDS011;56254;50.956;7.010;2022-12-07T04:16:25;65.73;;;25.47;;
5273;SDS011;56254;50.956;7.010;2022-12-07T04:18:51;51.77;;;25.17;;
5273;SDS011;56254;50.956;7.010;2022-12-07T04:21:17;51.97;;;23.37;;
5273;SDS011;56254;50.956;7.010;2022-12-07T04:23:43;58.97;;;26.47;;
5273;SDS011;56254;50.956;7.010;2022-12-07T04:26:08;51.93;;;24.37;;
5273;SDS011;56254;50.956;7.010;2022-12-07T04:28:34;57.37;;;25.80;;
5273;SDS011;56254;50.956;7.010;2022-12-07T04:31:00;45.70;;;23.30;;
5273;SDS011;56254;50.956;7.010;2022-12-07T04:33:26;54.63;;;24.43;;
5273;SDS011;56254;50.956;7.010;2022-12-07T04:35:51;50.13;;;25.07;;
5273;SDS011;56254;50.956;7.010;2022-12-07T04:38:17;47.07;;;23.70;;
5273;SDS011;56254;50.956;7.010;2022-12-07T04:40:43;61.60;;;26.20;;
5273;SDS011;56254;50.956;7.010;2022-12-07T04:43:09;46.23;;;23.77;;
5273;SDS011;56254;50.956;7.010;2022-12-07T04:45:34;46.10;;;23.67;;
5273;SDS011;56254;50.956;7.010;2022-12-07T04:48:01;54.50;;;24.87;;
5273;SDS011;56254;50.956;7.010;2022-12-07T04:50:27;42.23;;;22.60;;
5273;SDS011;56254;50.956;7.010;2022-12-07T04:52:52;55.00;;;23.43;;
5273;SDS011;56254;50.956;7.010;2022-12-07T04:55:21;52.47;;;24.97;;
5273;SDS011;56254;50.956;7.010;2022-12-07T04:57:47;55.37;;;24.43;;
5273;SDS011;56254;50.956;7.010;2022-12-07T05:00:12;51.83;;;23.70;;
5273;SDS011;56254;50.956;7.010;2022-12-07T05:02:38;61.73;;;24.53;;
5273;SDS011;56254;50.956;7.010;2022-12-07T05:05:04;62.70;;;23.77;;
5273;SDS011;56254;50.956;7.010;2022-12-07T05:07:30;42.47;;;23.23;;
5273;SDS011;56254;50.956;7.010;2022-12-07T05:09:55;50.37;;;26.13;;
5273;SDS011;56254;50.956;7.010;2022-12-07T05:12:21;52.27;;;24.73;;
5273;SDS011;56254;50.956;7.010;2022-12-07T05:14:47;55.07;;;24.83;;
5273;SDS011;56254;50.956;7.010;2022-12-07T05:17:12;59.13;;;23.23;;
5273;SDS011;56254;50.956;7.010;2022-12-07T05:19:38;48.40;;;24.43;;
5273;SDS011;56254;50.956;7.010;2022-12-07T05:22:04;58.60;;;26.30;;
5273;SDS011;56254;50.956;7.010;2022-12-07T05:24:29;47.80;;;22.70;;
5273;SDS011;56254;50.956;7.010;2022-12-07T05:26:55;67.00;;;23.53;;
5273;SDS011;56254;50.956;7.010;2022-12-07T05:29:22;49.53;;;23.10;;
5273;SDS011;56254;50.956;7.010;2022-12-07T05:31:47;47.90;;;24.13;;
5273;SDS011;56254;50.956;7.010;2022-12-07T05:34:13;43.90;;;21.50;;
5273;SDS011;56254;50.956;7.010;2022-12-07T05:36:41;52.30;;;25.53;;
5273;SDS011;56254;50.956;7.010;2022-12-07T05:39:07;47.77;;;21.40;;
5273;SDS011;56254;50.956;7.010;2022-12-07T05:41:35;67.10;;;23.90;;
5273;SDS011;56254;50.956;7.010;2022-12-07T05:44:21;61.83;;;24.60;;
5273;SDS011;56254;50.956;7.010;2022-12-07T05:46:47;48.83;;;23.80;;
5273;SDS011;56254;50.956;7.010;2022-12-07T05:49:13;53.37;;;23.23;;
5273;SDS011;56254;50.956;7.010;2022-12-07T05:51:38;50.10;;;22.73;;
5273;SDS011;56254;50.956;7.010;2022-12-07T05:54:04;57.77;;;23.37;;
5273;SDS011;56254;50.956;7.010;2022-12-07T05:56:30;41.20;;;20.90;;
5273;SDS011;56254;50.956;7.010;2022-12-07T05:58:56;49.20;;;22.37;;
5273;SDS011;56254;50.956;7.010;2022-12-07T06:01:40;47.97;;;22.23;;
5273;SDS011;56254;50.956;7.010;2022-12-07T06:04:06;39.53;;;21.20;;
5273;SDS011;56254;50.956;7.010;2022-12-07T06:06:32;51.93;;;22.10;;
5273;SDS011;56254;50.956;7.010;2022-12-07T06:08:58;45.17;;;21.13;;
5273;SDS011;56254;50.956;7.010;2022-12-07T06:11:24;43.60;;;21.43;;
5273;SDS011;56254;50.956;7.010;2022-12-07T06:14:28;49.63;;;21.93;;
5273;SDS011;56254;50.956;7.010;2022-12-07T06:16:54;45.80;;;21.47;;
5273;SDS011;56254;50.956;7.010;2022-12-07T06:19:19;48.03;;;22.00;;
5273;SDS011;56254;50.956;7.010;2022-12-07T06:21:45;43.20;;;20.20;;
5273;SDS011;56254;50.956;7.010;2022-12-07T06:24:12;44.13;;;21.10;;
5273;SDS011;56254;50.956;7.010;2022-12-07T06:26:38;42.90;;;20.67;;
5273;SDS011;56254;50.956;7.010;2022-12-07T06:29:04;37.83;;;18.37;;
5273;SDS011;56254;50.956;7.010;2022-12-07T06:31:30;38.43;;;18.90;;
5273;SDS011;56254;50.956;7.010;2022-12-07T06:33:57;36.20;;;19.57;;
5273;SDS011;56254;50.956;7.010;2022-12-07T06:36:28;47.67;;;20.03;;
5273;SDS011;56254;50.956;7.010;2022-12-07T06:38:54;34.50;;;19.43;;
5273;SDS011;56254;50.956;7.010;2022-12-07T06:41:20;39.37;;;20.90;;
5273;SDS011;56254;50.956;7.010;2022-12-07T06:43:46;42.03;;;21.67;;
5273;SDS011;56254;50.956;7.010;2022-12-07T06:46:12;51.03;;;25.40;;
5273;SDS011;56254;50.956;7.010;2022-12-07T06:48:39;61.77;;;23.37;;
5273;SDS011;56254;50.956;7.010;2022-12-07T06:51:05;48.17;;;22.63;;
5273;SDS011;56254;50.956;7.010;2022-12-07T06:53:32;49.13;;;21.83;;
5273;SDS011;56254;50.956;7.010;2022-12-07T06:55:58;42.50;;;22.73;;
5273;SDS011;56254;50.956;7.010;2022-12-07T06:58:24;53.80;;;22.90;;
5273;SDS011;56254;50.956;7.010;2022-12-07T07:00:49;45.63;;;23.27;;
5273;SDS011;56254;50.956;7.010;2022-12-07T07:03:16;51.40;;;24.77;;
5273;SDS011;56254;50.956;7.010;2022-12-07T07:05:42;55.20;;;22.67;;
5273;SDS011;56254;50.956;7.010;2022-12-07T07:08:09;47.87;;;21.93;;
5273;SDS011;56254;50.956;7.010;2022-12-07T07:10:35;46.30;;;22.17;;
5273;SDS011;56254;50.956;7.010;2022-12-07T07:13:01;52.03;;;23.87;;
5273;SDS011;56254;50.956;7.010;2022-12-07T07:15:28;54.70;;;24.77;;
5273;SDS011;56254;50.956;7.010;2022-12-07T07:17:55;58.67;;;24.77;;
5273;SDS011;56254;50.956;7.010;2022-12-07T07:20:21;52.67;;;25.83;;
5273;SDS011;56254;50.956;7.010;2022-12-07T07:22:48;51.83;;;22.73;;
5273;SDS011;56254;50.956;7.010;2022-12-07T07:25:14;44.47;;;22.67;;
5273;SDS011;56254;50.956;7.010;2022-12-07T07:27:40;55.87;;;26.37;;
5273;SDS011;56254;50.956;7.010;2022-12-07T07:30:06;47.40;;;24.47;;
5273;SDS011;56254;50.956;7.010;2022-12-07T07:32:32;48.70;;;24.10;;
5273;SDS011;56254;50.956;7.010;2022-12-07T07:34:58;51.50;;;24.83;;
5273;SDS011;56254;50.956;7.010;2022-12-07T07:37:24;42.17;;;22.53;;
5273;SDS011;56254;50.956;7.010;2022-12-07T07:39:50;75.37;;;24.93;;
5273;SDS011;56254;50.956;7.010;2022-12-07T07:42:16;46.37;;;22.73;;
5273;SDS011;56254;50.956;7.010;2022-12-07T07:44:41;44.50;;;23.23;;
5273;SDS011;56254;50.956;7.010;2022-12-07T07:47:07;51.13;;;24.10;;
5273;SDS011;56254;50.956;7.010;2022-12-07T07:51:59;50.70;;;23.93;;
5273;SDS011;56254;50.956;7.010;2022-12-07T07:54:24;50.37;;;25.57;;
5273;SDS011;56254;50.956;7.010;2022-12-07T07:56:50;42.63;;;23.10;;
5273;SDS011;56254;50.956;7.010;2022-12-07T07:59:16;45.17;;;23.13;;
5273;SDS011;56254;50.956;7.010;2022-12-07T08:01:42;50.40;;;24.47;;
5273;SDS011;56254;50.956;7.010;2022-12-07T08:04:08;42.90;;;21.10;;
5273;SDS011;56254;50.956;7.010;2022-12-07T08:06:34;50.93;;;23.60;;
5273;SDS011;56254;50.956;7.010;2022-12-07T08:09:00;43.77;;;23.00;;
5273;SDS011;56254;50.956;7.010;2022-12-07T08:11:26;49.33;;;23.80;;
5273;SDS011;56254;50.956;7.010;2022-12-07T08:13:52;51.03;;;23.80;;
5273;SDS011;56254;50.956;7.010;2022-12-07T08:16:24;52.43;;;22.47;;
5273;SDS011;56254;50.956;7.010;2022-12-07T08:18:50;53.23;;;25.30;;
5273;SDS011;56254;50.956;7.010;2022-12-07T08:21:15;46.40;;;22.47;;
5273;SDS011;56254;50.956;7.010;2022-12-07T08:23:42;55.20;;;24.23;;
5273;SDS011;56254;50.956;7.010;2022-12-07T08:26:09;48.60;;;24.33;;
5273;SDS011;56254;50.956;7.010;2022-12-07T08:28:37;42.07;;;21.43;;
5273;SDS011;56254;50.956;7.010;2022-12-07T08:31:05;55.60;;;23.77;;
5273;SDS011;56254;50.956;7.010;2022-12-07T08:33:32;37.30;;;21.87;;
5273;SDS011;56254;50.956;7.010;2022-12-07T08:36:05;36.77;;;21.37;;
5273;SDS011;56254;50.956;7.010;2022-12-07T08:38:34;45.50;;;23.20;;
5273;SDS011;56254;50.956;7.010;2022-12-07T08:41:01;40.77;;;21.30;;
5273;SDS011;56254;50.956;7.010;2022-12-07T08:43:27;39.07;;;21.00;;
5273;SDS011;56254;50.956;7.010;2022-12-07T08:45:56;51.27;;;22.40;;
5273;SDS011;56254;50.956;7.010;2022-12-07T08:48:34;45.30;;;20.90;;
5273;SDS011;56254;50.956;7.010;2022-12-07T08:51:01;38.40;;;21.60;;
5273;SDS011;56254;50.956;7.010;2022-12-07T08:53:33;38.27;;;21.00;;
5273;SDS011;56254;50.956;7.010;2022-12-07T08:56:01;34.60;;;18.20;;
5273;SDS011;56254;50.956;7.010;2022-12-07T08:58:27;42.60;;;19.73;;
5273;SDS011;56254;50.956;7.010;2022-12-07T09:00:52;36.30;;;19.10;;
5273;SDS011;56254;50.956;7.010;2022-12-07T09:03:19;30.50;;;18.07;;
5273;SDS011;56254;50.956;7.010;2022-12-07T09:05:45;30.90;;;18.70;;
5273;SDS011;56254;50.956;7.010;2022-12-07T09:08:10;51.17;;;19.57;;
5273;SDS011;56254;50.956;7.010;2022-12-07T09:10:37;41.67;;;19.87;;
5273;SDS011;56254;50.956;7.010;2022-12-07T09:13:02;44.40;;;19.23;;
5273;SDS011;56254;50.956;7.010;2022-12-07T09:15:28;42.30;;;18.63;;
5273;SDS011;56254;50.956;7.010;2022-12-07T09:17:54;31.00;;;18.70;;
5273;SDS011;56254;50.956;7.010;2022-12-07T09:20:20;32.73;;;18.73;;
5273;SDS011;56254;50.956;7.010;2022-12-07T09:22:46;29.83;;;17.20;;
5273;SDS011;56254;50.956;7.010;2022-12-07T09:25:12;31.47;;;18.00;;
5273;SDS011;56254;50.956;7.010;2022-12-07T09:27:38;35.93;;;17.70;;
5273;SDS011;56254;50.956;7.010;2022-12-07T09:30:04;32.83;;;18.13;;
5273;SDS011;56254;50.956;7.010;2022-12-07T09:32:31;38.80;;;18.03;;
5273;SDS011;56254;50.956;7.010;2022-12-07T09:34:57;35.93;;;18.77;;
5273;SDS011;56254;50.956;7.010;2022-12-07T09:37:23;48.83;;;18.77;;
5273;SDS011;56254;50.956;7.010;2022-12-07T09:39:49;40.83;;;17.50;;
5273;SDS011;56254;50.956;7.010;2022-12-07T09:44:54;30.50;;;15.10;;
5273;SDS011;56254;50.956;7.010;2022-12-07T09:47:22;53.00;;;18.67;;
5273;SDS011;56254;50.956;7.010;2022-12-07T09:49:48;23.93;;;14.60;;
5273;SDS011;56254;50.956;7.010;2022-12-07T09:52:26;31.90;;;15.77;;
5273;SDS011;56254;50.956;7.010;2022-12-07T09:54:53;30.47;;;14.90;;
5273;SDS011;56254;50.956;7.010;2022-12-07T09:57:21;29.70;;;14.80;;
5273;SDS011;56254;50.956;7.010;2022-12-07T09:59:49;35.70;;;16.10;;
5273;SDS011;56254;50.956;7.010;2022-12-07T10:02:35;30.20;;;15.50;;
5273;SDS011;56254;50.956;7.010;2022-12-07T10:05:03;27.33;;;14.80;;
5273;SDS011;56254;50.956;7.010;2022-12-07T10:07:29;27.67;;;12.93;;
5273;SDS011;56254;50.956;7.010;2022-12-07T10:09:55;36.23;;;14.97;;
5273;SDS011;56254;50.956;7.010;2022-12-07T10:12:21;23.53;;;12.63;;
5273;SDS011;56254;50.956;7.010;2022-12-07T10:15:00;29.13;;;14.13;;
5273;SDS011;56254;50.956;7.010;2022-12-07T10:17:32;24.13;;;13.50;;
5273;SDS011;56254;50.956;7.010;2022-12-07T10:20:41;21.40;;;12.70;;
5273;SDS011;56254;50.956;7.010;2022-12-07T10:23:13;37.60;;;14.90;;
5273;SDS011;56254;50.956;7.010;2022-12-07T10:25:38;35.97;;;14.17;;
5273;SDS011;56254;50.956;7.010;2022-12-07T10:33:34;34.73;;;14.30;;
5273;SDS011;56254;50.956;7.010;2022-12-07T10:36:00;28.33;;;13.03;;
5273;SDS011;56254;50.956;7.010;2022-12-07T10:38:26;34.20;;;12.53;;
5273;SDS011;56254;50.956;7.010;2022-12-07T10:41:05;23.00;;;11.70;;
5273;SDS011;56254;50.956;7.010;2022-12-07T10:43:31;25.87;;;11.90;;
5273;SDS011;56254;50.956;7.010;2022-12-07T10:57:32;28.00;;;12.33;;
5273;SDS011;56254;50.956;7.010;2022-12-07T11:00:19;22.33;;;11.60;;
5273;SDS011;56254;50.956;7.010;2022-12-07T11:07:48;27.10;;;9.90;;
5273;SDS011;56254;50.956;7.010;2022-12-07T11:11:04;27.93;;;11.57;;
5273;SDS011;56254;50.956;7.010;2022-12-07T11:28:59;36.07;;;12.60;;
5273;SDS011;56254;50.956;7.010;2022-12-07T11:31:30;28.27;;;11.20;;
5273;SDS011;56254;50.956;7.010;2022-12-07T11:34:00;26.53;;;10.10;;
5273;SDS011;56254;50.956;7.010;2022-12-07T11:36:40;18.47;;;8.33;;
5273;SDS011;56254;50.956;7.010;2022-12-07T11:39:16;23.20;;;10.10;;
5273;SDS011;56254;50.956;7.010;2022-12-07T11:41:47;22.63;;;9.93;;
5273;SDS011;56254;50.956;7.010;2022-12-07T11:47:00;33.20;;;10.87;;
5273;SDS011;56254;50.956;7.010;2022-12-07T11:51:54;22.80;;;9.73;;
5273;SDS011;56254;50.956;7.010;2022-12-07T11:54:29;25.10;;;9.10;;
5273;SDS011;56254;50.956;7.010;2022-12-07T11:56:56;20.50;;;8.60;;
5273;SDS011;56254;50.956;7.010;2022-12-07T12:07:15;15.63;;;8.33;;
5273;SDS011;56254;50.956;7.010;2022-12-07T12:09:45;19.20;;;8.90;;
5273;SDS011;56254;50.956;7.010;2022-12-07T12:12:17;18.73;;;8.33;;
5273;SDS011;56254;50.956;7.010;2022-12-07T12:17:44;16.33;;;8.03;;
5273;SDS011;56254;50.956;7.010;2022-12-07T12:22:45;15.83;;;7.30;;
5273;SDS011;56254;50.956;7.010;2022-12-07T12:25:31;22.87;;;9.47;;
5273;SDS011;56254;50.956;7.010;2022-12-07T12:27:58;30.27;;;9.93;;
5273;SDS011;56254;50.956;7.010;2022-12-07T12:33:17;28.13;;;8.40;;
5273;SDS011;56254;50.956;7.010;2022-12-07T12:35:45;16.90;;;8.47;;
5273;SDS011;56254;50.956;7.010;2022-12-07T12:38:31;22.87;;;10.50;;
5273;SDS011;56254;50.956;7.010;2022-12-07T12:41:01;18.50;;;9.17;;
5273;SDS011;56254;50.956;7.010;2022-12-07T12:43:44;19.67;;;8.23;;
5273;SDS011;56254;50.956;7.010;2022-12-07T12:51:40;31.67;;;11.93;;
5273;SDS011;56254;50.956;7.010;2022-12-07T12:57:01;26.13;;;10.20;;
5273;SDS011;56254;50.956;7.010;2022-12-07T12:59:34;32.67;;;12.50;;
5273;SDS011;56254;50.956;7.010;2022-12-07T13:02:08;49.07;;;13.80;;
5273;SDS011;56254;50.956;7.010;2022-12-07T13:04:40;40.53;;;15.37;;
5273;SDS011;56254;50.956;7.010;2022-12-07T13:07:46;26.47;;;12.10;;
5273;SDS011;56254;50.956;7.010;2022-12-07T13:10:00;25.33;;;9.90;;
5273;SDS011;56254;50.956;7.010;2022-12-07T13:12:33;38.03;;;9.80;;
5273;SDS011;56254;50.956;7.010;2022-12-07T13:14:59;16.87;;;8.10;;
5273;SDS011;56254;50.956;7.010;2022-12-07T13:19:58;34.50;;;9.17;;
5273;SDS011;56254;50.956;7.010;2022-12-07T13:27:55;33.27;;;9.90;;
5273;SDS011;56254;50.956;7.010;2022-12-07T13:30:22;27.20;;;11.27;;
5273;SDS011;56254;50.956;7.010;2022-12-07T13:32:55;25.73;;;9.93;;
5273;SDS011;56254;50.956;7.010;2022-12-07T13:35:34;22.00;;;9.20;;
5273;SDS011;56254;50.956;7.010;2022-12-07T13:38:49;36.53;;;12.30;;
5273;SDS011;56254;50.956;7.010;2022-12-07T13:40:59;24.17;;;10.50;;
5273;SDS011;56254;50.956;7.010;2022-12-07T13:43:25;25.07;;;11.90;;
5273;SDS011;56254;50.956;7.010;2022-12-07T13:45:58;19.57;;;11.13;;
5273;SDS011;56254;50.956;7.010;2022-12-07T13:48:33;24.13;;;10.07;;
5273;SDS011;56254;50.956;7.010;2022-12-07T13:51:01;24.90;;;10.20;;
5273;SDS011;56254;50.956;7.010;2022-12-07T13:53:28;25.10;;;9.57;;
5273;SDS011;56254;50.956;7.010;2022-12-07T13:55:55;22.63;;;10.43;;
5273;SDS011;56254;50.956;7.010;2022-12-07T13:58:22;34.97;;;9.60;;
5273;SDS011;56254;50.956;7.010;2022-12-07T14:00:48;28.90;;;9.80;;
5273;SDS011;56254;50.956;7.010;2022-12-07T14:05:42;27.17;;;10.90;;
5273;SDS011;56254;50.956;7.010;2022-12-07T14:15:44;26.63;;;9.50;;
5273;SDS011;56254;50.956;7.010;2022-12-07T14:18:25;31.37;;;9.77;;
5273;SDS011;56254;50.956;7.010;2022-12-07T14:21:02;25.17;;;10.50;;
5273;SDS011;56254;50.956;7.010;2022-12-07T14:23:28;24.53;;;9.40;;
5273;SDS011;56254;50.956;7.010;2022-12-07T14:26:03;23.10;;;9.30;;
5273;SDS011;56254;50.956;7.010;2022-12-07T14:28:31;21.57;;;10.20;;
5273;SDS011;56254;50.956;7.010;2022-12-07T14:30:58;26.00;;;10.10;;
5273;SDS011;56254;50.956;7.010;2022-12-07T14:33:24;36.57;;;11.70;;
5273;SDS011;56254;50.956;7.010;2022-12-07T14:35:50;22.97;;;10.70;;
5273;SDS011;56254;50.956;7.010;2022-12-07T14:38:20;30.73;;;9.03;;
5273;SDS011;56254;50.956;7.010;2022-12-07T14:40:46;33.33;;;10.43;;
5273;SDS011;56254;50.956;7.010;2022-12-07T14:43:14;50.60;;;15.43;;
5273;SDS011;56254;50.956;7.010;2022-12-07T14:45:40;23.83;;;9.87;;
5273;SDS011;56254;50.956;7.010;2022-12-07T14:48:13;32.43;;;9.30;;
5273;SDS011;56254;50.956;7.010;2022-12-07T14:50:44;16.47;;;9.70;;
5273;SDS011;56254;50.956;7.010;2022-12-07T14:53:15;27.17;;;10.00;;
5273;SDS011;56254;50.956;7.010;2022-12-07T14:55:41;27.93;;;9.57;;
5273;SDS011;56254;50.956;7.010;2022-12-07T14:58:14;19.70;;;9.20;;
5273;SDS011;56254;50.956;7.010;2022-12-07T15:00:40;23.73;;;9.57;;
5273;SDS011;56254;50.956;7.010;2022-12-07T15:03:10;23.60;;;10.57;;
5273;SDS011;56254;50.956;7.010;2022-12-07T15:05:37;21.33;;;10.17;;
5273;SDS011;56254;50.956;7.010;2022-12-07T15:08:04;21.43;;;10.20;;
5273;SDS011;56254;50.956;7.010;2022-12-07T15:10:31;21.60;;;10.23;;
5273;SDS011;56254;50.956;7.010;2022-12-07T15:12:58;20.70;;;10.20;;
5273;SDS011;56254;50.956;7.010;2022-12-07T15:15:45;23.73;;;10.00;;
5273;SDS011;56254;50.956;7.010;2022-12-07T15:18:11;25.20;;;10.40;;
5273;SDS011;56254;50.956;7.010;2022-12-07T15:20:37;16.20;;;9.90;;
5273;SDS011;56254;50.956;7.010;2022-12-07T15:23:03;29.70;;;11.23;;
5273;SDS011;56254;50.956;7.010;2022-12-07T15:25:29;26.63;;;10.10;;
5273;SDS011;56254;50.956;7.010;2022-12-07T15:27:56;29.23;;;9.77;;
5273;SDS011;56254;50.956;7.010;2022-12-07T15:30:22;24.07;;;10.87;;
5273;SDS011;56254;50.956;7.010;2022-12-07T15:32:51;7.83;;;3.73;;
5273;SDS011;56254;50.956;7.010;2022-12-07T15:35:17;12.33;;;5.00;;
5273;SDS011;56254;50.956;7.010;2022-12-07T15:37:43;7.63;;;5.07;;
5273;SDS011;56254;50.956;7.010;2022-12-07T15:40:10;11.97;;;5.77;;
5273;SDS011;56254;50.956;7.010;2022-12-07T15:42:36;18.33;;;4.87;;
5273;SDS011;56254;50.956;7.010;2022-12-07T15:45:03;9.77;;;5.57;;
5273;SDS011;56254;50.956;7.010;2022-12-07T15:47:30;11.53;;;4.77;;
5273;SDS011;56254;50.956;7.010;2022-12-07T15:49:56;8.50;;;4.70;;
5273;SDS011;56254;50.956;7.010;2022-12-07T15:52:22;8.87;;;4.53;;
5273;SDS011;56254;50.956;7.010;2022-12-07T15:54:49;8.30;;;4.10;;
5273;SDS011;56254;50.956;7.010;2022-12-07T15:57:15;7.17;;;4.53;;
5273;SDS011;56254;50.956;7.010;2022-12-07T15:59:41;6.43;;;3.93;;
5273;SDS011;56254;50.956;7.010;2022-12-07T16:02:09;8.67;;;4.27;;
5273;SDS011;56254;50.956;7.010;2022-12-07T16:04:35;12.93;;;5.40;;
5273;SDS011;56254;50.956;7.010;2022-12-07T16:07:01;8.40;;;5.40;;
5273;SDS011;56254;50.956;7.010;2022-12-07T16:09:27;27.33;;;9.03;;
5273;SDS011;56254;50.956;7.010;2022-12-07T16:11:53;33.67;;;9.03;;
5273;SDS011;56254;50.956;7.010;2022-12-07T16:14:20;18.07;;;8.03;;
5273;SDS011;56254;50.956;7.010;2022-12-07T16:16:46;24.20;;;8.73;;
5273;SDS011;56254;50.956;7.010;2022-12-07T16:19:12;16.70;;;7.20;;
5273;SDS011;56254;50.956;7.010;2022-12-07T16:21:38;20.60;;;8.17;;
5273;SDS011;56254;50.956;7.010;2022-12-07T16:24:04;11.10;;;7.80;;
5273;SDS011;56254;50.956;7.010;2022-12-07T16:26:31;35.70;;;9.13;;
5273;SDS011;56254;50.956;7.010;2022-12-07T16:28:57;25.73;;;8.43;;
5273;SDS011;56254;50.956;7.010;2022-12-07T16:31:24;14.27;;;7.17;;
5273;SDS011;56254;50.956;7.010;2022-12-07T16:33:52;10.53;;;6.50;;
5273;SDS011;56254;50.956;7.010;2022-12-07T16:36:18;26.03;;;10.90;;
5273;SDS011;56254;50.956;7.010;2022-12-07T16:38:47;20.50;;;8.20;;
5273;SDS011;56254;50.956;7.010;2022-12-07T16:41:13;23.23;;;11.70;;
5273;SDS011;56254;50.956;7.010;2022-12-07T16:43:40;20.60;;;9.67;;
5273;SDS011;56254;50.956;7.010;2022-12-07T16:46:06;30.57;;;13.47;;
5273;SDS011;56254;50.956;7.010;2022-12-07T16:48:37;27.37;;;10.40;;
5273;SDS011;56254;50.956;7.010;2022-12-07T16:51:04;32.37;;;12.80;;